sensor_id;sensor_type;location;lat;lon;timestamp;temperature;humidity
75321;DHT22;68337;52.196;5.660;2023-07-13T00:00:44;16.20;99.90
75321;DHT22;68337;52.196;5.660;2023-07-13T00:03:10;16.30;99.90
75321;DHT22;68337;52.196;5.660;2023-07-13T00:05:40;16.20;99.90
75321;DHT22;68337;52.196;5.660;2023-07-13T00:08:07;16.20;99.90
75321;DHT22;68337;52.196;5.660;2023-07-13T00:10:33;16.30;99.90
75321;DHT22;68337;52.196;5.660;2023-07-13T00:12:59;16.20;99.90
75321;DHT22;68337;52.196;5.660;2023-07-13T00:15:26;16.20;99.90
75321;DHT22;68337;52.196;5.660;2023-07-13T00:17:54;16.20;99.90
75321;DHT22;68337;52.196;5.660;2023-07-13T00:20:22;16.20;99.90
75321;DHT22;68337;52.196;5.660;2023-07-13T00:22:49;16.20;99.90
75321;DHT22;68337;52.196;5.660;2023-07-13T00:25:15;16.20;99.90
75321;DHT22;68337;52.196;5.660;2023-07-13T00:27:43;16.20;99.90
75321;DHT22;68337;52.196;5.660;2023-07-13T00:30:10;16.10;99.90
75321;DHT22;68337;52.196;5.660;2023-07-13T00:32:36;16.10;99.90
75321;DHT22;68337;52.196;5.660;2023-07-13T00:35:03;16.00;99.90
75321;DHT22;68337;52.196;5.660;2023-07-13T00:37:30;15.90;99.90
75321;DHT22;68337;52.196;5.660;2023-07-13T00:39:56;15.80;99.90
75321;DHT22;68337;52.196;5.660;2023-07-13T00:42:21;15.80;99.90
75321;DHT22;68337;52.196;5.660;2023-07-13T00:47:36;15.70;99.90
75321;DHT22;68337;52.196;5.660;2023-07-13T00:50:04;15.70;99.90
75321;DHT22;68337;52.196;5.660;2023-07-13T00:52:31;15.70;99.90
75321;DHT22;68337;52.196;5.660;2023-07-13T00:54:58;15.60;99.90
75321;DHT22;68337;52.196;5.660;2023-07-13T00:57:24;15.50;99.90
75321;DHT22;68337;52.196;5.660;2023-07-13T00:59:55;15.50;99.90
75321;DHT22;68337;52.196;5.660;2023-07-13T01:02:24;15.50;99.90
75321;DHT22;68337;52.196;5.660;2023-07-13T01:04:50;15.60;99.90
75321;DHT22;68337;52.196;5.660;2023-07-13T01:07:16;15.50;99.90
75321;DHT22;68337;52.196;5.660;2023-07-13T01:09:42;15.50;99.90
75321;DHT22;68337;52.196;5.660;2023-07-13T01:12:08;15.50;99.90
75321;DHT22;68337;52.196;5.660;2023-07-13T01:14:34;15.50;99.90
75321;DHT22;68337;52.196;5.660;2023-07-13T01:16:59;15.40;99.90
75321;DHT22;68337;52.196;5.660;2023-07-13T01:22:17;15.60;99.90
75321;DHT22;68337;52.196;5.660;2023-07-13T01:24:45;15.50;99.90
75321;DHT22;68337;52.196;5.660;2023-07-13T01:27:13;15.40;99.90
75321;DHT22;68337;52.196;5.660;2023-07-13T01:29:41;15.30;99.90
75321;DHT22;68337;52.196;5.660;2023-07-13T01:32:15;15.30;99.90
75321;DHT22;68337;52.196;5.660;2023-07-13T01:34:41;15.30;99.90
75321;DHT22;68337;52.196;5.660;2023-07-13T01:37:09;15.20;99.90
75321;DHT22;68337;52.196;5.660;2023-07-13T01:39:35;15.20;99.90
75321;DHT22;68337;52.196;5.660;2023-07-13T01:42:01;15.20;99.90
75321;DHT22;68337;52.196;5.660;2023-07-13T01:44:27;15.20;99.90
75321;DHT22;68337;52.196;5.660;2023-07-13T01:46:53;15.20;99.90
75321;DHT22;68337;52.196;5.660;2023-07-13T01:49:19;15.10;99.90
75321;DHT22;68337;52.196;5.660;2023-07-13T01:51:45;15.00;99.90
75321;DHT22;68337;52.196;5.660;2023-07-13T01:54:11;15.00;99.90
75321;DHT22;68337;52.196;5.660;2023-07-13T01:56:36;15.00;99.90
75321;DHT22;68337;52.196;5.660;2023-07-13T01:59:02;14.90;99.90
75321;DHT22;68337;52.196;5.660;2023-07-13T02:01:28;14.90;99.90
75321;DHT22;68337;52.196;5.660;2023-07-13T02:03:54;14.90;99.90
75321;DHT22;68337;52.196;5.660;2023-07-13T02:06:20;14.80;99.90
75321;DHT22;68337;52.196;5.660;2023-07-13T02:08:45;14.80;99.90
75321;DHT22;68337;52.196;5.660;2023-07-13T02:11:11;14.80;99.90
75321;DHT22;68337;52.196;5.660;2023-07-13T02:13:37;14.80;99.90
75321;DHT22;68337;52.196;5.660;2023-07-13T02:16:03;14.80;99.90
75321;DHT22;68337;52.196;5.660;2023-07-13T02:18:29;14.80;99.90
75321;DHT22;68337;52.196;5.660;2023-07-13T02:20:55;14.70;99.90
75321;DHT22;68337;52.196;5.660;2023-07-13T02:23:21;14.70;99.90
75321;DHT22;68337;52.196;5.660;2023-07-13T02:25:46;14.80;99.90
75321;DHT22;68337;52.196;5.660;2023-07-13T02:28:12;14.70;99.90
75321;DHT22;68337;52.196;5.660;2023-07-13T02:30:38;14.60;99.90
75321;DHT22;68337;52.196;5.660;2023-07-13T02:33:04;14.60;99.90
75321;DHT22;68337;52.196;5.660;2023-07-13T02:35:30;14.60;99.90
75321;DHT22;68337;52.196;5.660;2023-07-13T02:37:56;14.70;99.90
75321;DHT22;68337;52.196;5.660;2023-07-13T02:40:22;14.60;99.90
75321;DHT22;68337;52.196;5.660;2023-07-13T02:42:48;14.60;99.90
75321;DHT22;68337;52.196;5.660;2023-07-13T02:45:14;14.50;99.90
75321;DHT22;68337;52.196;5.660;2023-07-13T02:47:41;14.40;99.90
75321;DHT22;68337;52.196;5.660;2023-07-13T02:50:07;14.40;99.90
75321;DHT22;68337;52.196;5.660;2023-07-13T02:52:33;14.30;99.90
75321;DHT22;68337;52.196;5.660;2023-07-13T02:54:59;14.30;99.90
75321;DHT22;68337;52.196;5.660;2023-07-13T02:57:25;14.30;99.90
75321;DHT22;68337;52.196;5.660;2023-07-13T02:59:51;14.30;99.90
75321;DHT22;68337;52.196;5.660;2023-07-13T03:02:16;14.40;99.90
75321;DHT22;68337;52.196;5.660;2023-07-13T03:04:43;14.40;99.90
75321;DHT22;68337;52.196;5.660;2023-07-13T03:07:09;14.40;99.90
75321;DHT22;68337;52.196;5.660;2023-07-13T03:09:35;14.40;99.90
75321;DHT22;68337;52.196;5.660;2023-07-13T03:12:01;14.40;99.90
75321;DHT22;68337;52.196;5.660;2023-07-13T03:14:27;14.40;99.90
75321;DHT22;68337;52.196;5.660;2023-07-13T03:16:52;14.40;99.90
75321;DHT22;68337;52.196;5.660;2023-07-13T03:19:19;14.40;99.90
75321;DHT22;68337;52.196;5.660;2023-07-13T03:21:45;14.40;99.90
75321;DHT22;68337;52.196;5.660;2023-07-13T03:24:11;14.30;99.90
75321;DHT22;68337;52.196;5.660;2023-07-13T03:26:37;14.30;99.90
75321;DHT22;68337;52.196;5.660;2023-07-13T03:29:02;14.30;99.90
75321;DHT22;68337;52.196;5.660;2023-07-13T03:31:31;14.30;99.90
75321;DHT22;68337;52.196;5.660;2023-07-13T03:33:57;14.20;99.90
75321;DHT22;68337;52.196;5.660;2023-07-13T03:36:26;14.30;99.90
75321;DHT22;68337;52.196;5.660;2023-07-13T03:38:55;14.20;99.90
75321;DHT22;68337;52.196;5.660;2023-07-13T03:41:21;14.20;99.90
75321;DHT22;68337;52.196;5.660;2023-07-13T03:43:48;14.20;99.90
75321;DHT22;68337;52.196;5.660;2023-07-13T03:46:15;14.30;99.90
75321;DHT22;68337;52.196;5.660;2023-07-13T03:48:41;14.30;99.90
75321;DHT22;68337;52.196;5.660;2023-07-13T03:51:10;14.30;99.90
75321;DHT22;68337;52.196;5.660;2023-07-13T03:53:39;14.30;99.90
75321;DHT22;68337;52.196;5.660;2023-07-13T03:56:05;14.30;99.90
75321;DHT22;68337;52.196;5.660;2023-07-13T03:58:33;14.30;99.90
75321;DHT22;68337;52.196;5.660;2023-07-13T04:01:00;14.30;99.90
75321;DHT22;68337;52.196;5.660;2023-07-13T04:03:27;14.40;99.90
75321;DHT22;68337;52.196;5.660;2023-07-13T04:05:56;14.40;99.90
75321;DHT22;68337;52.196;5.660;2023-07-13T04:08:30;14.40;99.90
75321;DHT22;68337;52.196;5.660;2023-07-13T04:10:57;14.40;99.90
75321;DHT22;68337;52.196;5.660;2023-07-13T04:13:23;14.30;99.90
75321;DHT22;68337;52.196;5.660;2023-07-13T04:15:50;14.30;99.90
75321;DHT22;68337;52.196;5.660;2023-07-13T04:18:16;14.30;99.90
75321;DHT22;68337;52.196;5.660;2023-07-13T04:20:42;14.30;99.90
75321;DHT22;68337;52.196;5.660;2023-07-13T04:23:08;14.30;99.90
75321;DHT22;68337;52.196;5.660;2023-07-13T04:25:34;14.30;99.90
75321;DHT22;68337;52.196;5.660;2023-07-13T04:28:00;14.40;99.90
75321;DHT22;68337;52.196;5.660;2023-07-13T04:30:25;14.30;99.90
75321;DHT22;68337;52.196;5.660;2023-07-13T04:32:52;14.40;99.90
75321;DHT22;68337;52.196;5.660;2023-07-13T04:35:20;14.40;99.90
75321;DHT22;68337;52.196;5.660;2023-07-13T04:37:47;14.40;99.90
75321;DHT22;68337;52.196;5.660;2023-07-13T04:40:18;14.40;99.90
75321;DHT22;68337;52.196;5.660;2023-07-13T04:42:45;14.40;99.90
75321;DHT22;68337;52.196;5.660;2023-07-13T04:45:11;14.50;99.90
75321;DHT22;68337;52.196;5.660;2023-07-13T04:47:38;14.50;99.90
75321;DHT22;68337;52.196;5.660;2023-07-13T04:50:04;14.50;99.90
75321;DHT22;68337;52.196;5.660;2023-07-13T04:52:31;14.70;99.90
75321;DHT22;68337;52.196;5.660;2023-07-13T04:54:58;14.70;99.90
75321;DHT22;68337;52.196;5.660;2023-07-13T04:57:24;14.80;99.90
75321;DHT22;68337;52.196;5.660;2023-07-13T04:59:50;14.80;99.90
75321;DHT22;68337;52.196;5.660;2023-07-13T05:02:16;14.90;99.90
75321;DHT22;68337;52.196;5.660;2023-07-13T05:04:41;15.10;99.90
75321;DHT22;68337;52.196;5.660;2023-07-13T05:07:07;15.20;99.90
75321;DHT22;68337;52.196;5.660;2023-07-13T05:09:33;15.30;99.90
75321;DHT22;68337;52.196;5.660;2023-07-13T05:11:59;15.40;99.90
75321;DHT22;68337;52.196;5.660;2023-07-13T05:14:25;15.50;99.90
75321;DHT22;68337;52.196;5.660;2023-07-13T05:16:51;15.50;99.90
75321;DHT22;68337;52.196;5.660;2023-07-13T05:19:16;15.60;99.90
75321;DHT22;68337;52.196;5.660;2023-07-13T05:21:42;15.60;99.90
75321;DHT22;68337;52.196;5.660;2023-07-13T05:24:08;15.70;99.90
75321;DHT22;68337;52.196;5.660;2023-07-13T05:26:34;15.80;99.90
75321;DHT22;68337;52.196;5.660;2023-07-13T05:29:00;15.80;99.90
75321;DHT22;68337;52.196;5.660;2023-07-13T05:31:25;15.90;99.90
75321;DHT22;68337;52.196;5.660;2023-07-13T05:33:51;16.00;99.90
75321;DHT22;68337;52.196;5.660;2023-07-13T05:36:17;15.90;99.90
75321;DHT22;68337;52.196;5.660;2023-07-13T05:38:43;15.90;99.90
75321;DHT22;68337;52.196;5.660;2023-07-13T05:41:09;15.90;99.90
75321;DHT22;68337;52.196;5.660;2023-07-13T05:43:34;16.00;99.90
75321;DHT22;68337;52.196;5.660;2023-07-13T05:46:00;16.20;99.90
75321;DHT22;68337;52.196;5.660;2023-07-13T05:48:26;16.40;99.90
75321;DHT22;68337;52.196;5.660;2023-07-13T05:50:52;16.40;99.90
75321;DHT22;68337;52.196;5.660;2023-07-13T05:53:18;16.50;99.90
75321;DHT22;68337;52.196;5.660;2023-07-13T05:55:45;16.40;99.90
75321;DHT22;68337;52.196;5.660;2023-07-13T05:58:19;16.50;99.90
75321;DHT22;68337;52.196;5.660;2023-07-13T06:00:46;16.60;99.90
75321;DHT22;68337;52.196;5.660;2023-07-13T06:03:12;16.60;99.90
75321;DHT22;68337;52.196;5.660;2023-07-13T06:05:38;16.60;99.90
75321;DHT22;68337;52.196;5.660;2023-07-13T06:08:07;16.60;99.90
75321;DHT22;68337;52.196;5.660;2023-07-13T06:10:35;16.70;99.90
75321;DHT22;68337;52.196;5.660;2023-07-13T06:13:01;16.60;99.90
75321;DHT22;68337;52.196;5.660;2023-07-13T06:15:28;16.50;99.90
75321;DHT22;68337;52.196;5.660;2023-07-13T06:17:54;16.70;99.90
75321;DHT22;68337;52.196;5.660;2023-07-13T06:20:20;16.90;99.90
75321;DHT22;68337;52.196;5.660;2023-07-13T06:22:45;16.80;99.90
75321;DHT22;68337;52.196;5.660;2023-07-13T06:25:11;16.80;99.90
75321;DHT22;68337;52.196;5.660;2023-07-13T06:27:37;16.90;99.90
75321;DHT22;68337;52.196;5.660;2023-07-13T06:30:03;17.00;99.90
75321;DHT22;68337;52.196;5.660;2023-07-13T06:32:29;17.10;99.90
75321;DHT22;68337;52.196;5.660;2023-07-13T06:34:55;17.40;99.90
75321;DHT22;68337;52.196;5.660;2023-07-13T06:37:20;17.60;99.90
75321;DHT22;68337;52.196;5.660;2023-07-13T06:39:46;17.50;99.90
75321;DHT22;68337;52.196;5.660;2023-07-13T06:42:12;17.50;99.90
75321;DHT22;68337;52.196;5.660;2023-07-13T06:44:38;17.50;99.90
75321;DHT22;68337;52.196;5.660;2023-07-13T06:47:04;17.80;99.90
75321;DHT22;68337;52.196;5.660;2023-07-13T06:49:30;18.00;99.90
75321;DHT22;68337;52.196;5.660;2023-07-13T06:51:55;18.10;99.90
75321;DHT22;68337;52.196;5.660;2023-07-13T06:54:21;18.30;99.90
75321;DHT22;68337;52.196;5.660;2023-07-13T06:56:47;18.10;99.90
75321;DHT22;68337;52.196;5.660;2023-07-13T06:59:13;18.10;99.90
75321;DHT22;68337;52.196;5.660;2023-07-13T07:01:38;18.20;99.90
75321;DHT22;68337;52.196;5.660;2023-07-13T07:04:04;18.30;99.90
75321;DHT22;68337;52.196;5.660;2023-07-13T07:06:30;18.20;99.90
75321;DHT22;68337;52.196;5.660;2023-07-13T07:08:56;18.10;99.90
75321;DHT22;68337;52.196;5.660;2023-07-13T07:11:24;18.20;99.90
75321;DHT22;68337;52.196;5.660;2023-07-13T07:13:52;18.50;99.90
75321;DHT22;68337;52.196;5.660;2023-07-13T07:16:19;18.40;99.90
75321;DHT22;68337;52.196;5.660;2023-07-13T07:18:47;18.30;99.90
75321;DHT22;68337;52.196;5.660;2023-07-13T07:21:16;18.40;99.90
75321;DHT22;68337;52.196;5.660;2023-07-13T07:23:42;18.60;99.90
75321;DHT22;68337;52.196;5.660;2023-07-13T07:26:08;18.90;99.90
75321;DHT22;68337;52.196;5.660;2023-07-13T07:28:35;19.10;99.90
75321;DHT22;68337;52.196;5.660;2023-07-13T07:31:01;19.20;99.90
75321;DHT22;68337;52.196;5.660;2023-07-13T07:33:27;18.90;99.90
75321;DHT22;68337;52.196;5.660;2023-07-13T07:35:53;18.50;99.90
75321;DHT22;68337;52.196;5.660;2023-07-13T07:38:19;18.60;99.90
75321;DHT22;68337;52.196;5.660;2023-07-13T07:40:45;18.60;99.90
75321;DHT22;68337;52.196;5.660;2023-07-13T07:43:12;19.00;99.90
75321;DHT22;68337;52.196;5.660;2023-07-13T07:45:40;19.10;99.90
75321;DHT22;68337;52.196;5.660;2023-07-13T07:48:06;19.30;99.90
75321;DHT22;68337;52.196;5.660;2023-07-13T07:50:33;19.30;99.90
75321;DHT22;68337;52.196;5.660;2023-07-13T07:52:59;19.20;99.90
75321;DHT22;68337;52.196;5.660;2023-07-13T07:55:27;19.00;99.90
75321;DHT22;68337;52.196;5.660;2023-07-13T07:57:53;19.00;99.90
75321;DHT22;68337;52.196;5.660;2023-07-13T08:00:19;18.90;99.90
75321;DHT22;68337;52.196;5.660;2023-07-13T08:02:45;18.70;99.90
75321;DHT22;68337;52.196;5.660;2023-07-13T08:05:11;18.60;99.90
75321;DHT22;68337;52.196;5.660;2023-07-13T08:07:38;18.50;99.90
75321;DHT22;68337;52.196;5.660;2023-07-13T08:10:05;18.50;99.90
75321;DHT22;68337;52.196;5.660;2023-07-13T08:12:37;18.80;99.90
75321;DHT22;68337;52.196;5.660;2023-07-13T08:15:04;18.70;99.90
75321;DHT22;68337;52.196;5.660;2023-07-13T08:17:31;18.90;99.90
75321;DHT22;68337;52.196;5.660;2023-07-13T08:19:57;18.80;99.90
75321;DHT22;68337;52.196;5.660;2023-07-13T08:22:23;18.70;99.90
75321;DHT22;68337;52.196;5.660;2023-07-13T08:24:49;18.90;99.90
75321;DHT22;68337;52.196;5.660;2023-07-13T08:27:25;19.00;99.90
75321;DHT22;68337;52.196;5.660;2023-07-13T08:29:51;19.10;99.90
75321;DHT22;68337;52.196;5.660;2023-07-13T08:32:19;19.20;99.90
75321;DHT22;68337;52.196;5.660;2023-07-13T08:34:45;19.20;99.90
75321;DHT22;68337;52.196;5.660;2023-07-13T08:37:12;19.50;99.90
75321;DHT22;68337;52.196;5.660;2023-07-13T08:39:38;19.80;99.90
75321;DHT22;68337;52.196;5.660;2023-07-13T08:45:11;20.10;99.90
75321;DHT22;68337;52.196;5.660;2023-07-13T08:47:58;20.00;99.90
75321;DHT22;68337;52.196;5.660;2023-07-13T08:53:42;19.80;99.90
75321;DHT22;68337;52.196;5.660;2023-07-13T08:56:28;20.40;99.90
75321;DHT22;68337;52.196;5.660;2023-07-13T08:59:30;20.50;99.90
75321;DHT22;68337;52.196;5.660;2023-07-13T09:02:32;20.40;99.90
75321;DHT22;68337;52.196;5.660;2023-07-13T09:05:27;20.20;99.90
75321;DHT22;68337;52.196;5.660;2023-07-13T09:17:17;20.10;99.90
75321;DHT22;68337;52.196;5.660;2023-07-13T09:20:29;19.80;99.90
75321;DHT22;68337;52.196;5.660;2023-07-13T09:23:02;19.10;99.90
75321;DHT22;68337;52.196;5.660;2023-07-13T09:25:34;18.90;99.90
75321;DHT22;68337;52.196;5.660;2023-07-13T09:28:17;18.90;99.90
75321;DHT22;68337;52.196;5.660;2023-07-13T09:30:54;18.90;99.90
75321;DHT22;68337;52.196;5.660;2023-07-13T09:33:22;19.10;99.90
75321;DHT22;68337;52.196;5.660;2023-07-13T09:35:48;19.70;99.90
75321;DHT22;68337;52.196;5.660;2023-07-13T09:38:17;20.20;99.90
75321;DHT22;68337;52.196;5.660;2023-07-13T09:46:35;20.10;99.90
75321;DHT22;68337;52.196;5.660;2023-07-13T09:49:02;20.80;99.90
75321;DHT22;68337;52.196;5.660;2023-07-13T09:51:28;21.40;99.90
75321;DHT22;68337;52.196;5.660;2023-07-13T09:53:55;21.60;99.90
75321;DHT22;68337;52.196;5.660;2023-07-13T09:56:23;21.10;99.90
75321;DHT22;68337;52.196;5.660;2023-07-13T09:58:50;20.60;99.90
75321;DHT22;68337;52.196;5.660;2023-07-13T10:01:16;21.20;99.90
75321;DHT22;68337;52.196;5.660;2023-07-13T10:03:56;21.40;99.90
75321;DHT22;68337;52.196;5.660;2023-07-13T10:06:22;21.40;99.90
75321;DHT22;68337;52.196;5.660;2023-07-13T10:08:50;21.40;99.90
75321;DHT22;68337;52.196;5.660;2023-07-13T10:11:18;21.20;99.90
75321;DHT22;68337;52.196;5.660;2023-07-13T10:13:56;21.00;99.90
75321;DHT22;68337;52.196;5.660;2023-07-13T10:16:25;20.70;99.90
75321;DHT22;68337;52.196;5.660;2023-07-13T10:18:55;20.10;99.90
75321;DHT22;68337;52.196;5.660;2023-07-13T10:21:26;19.80;99.90
75321;DHT22;68337;52.196;5.660;2023-07-13T10:24:21;19.30;99.90
75321;DHT22;68337;52.196;5.660;2023-07-13T10:29:38;19.00;99.90
75321;DHT22;68337;52.196;5.660;2023-07-13T10:32:13;19.10;99.90
75321;DHT22;68337;52.196;5.660;2023-07-13T10:34:43;19.70;99.90
75321;DHT22;68337;52.196;5.660;2023-07-13T10:37:21;20.20;99.90
75321;DHT22;68337;52.196;5.660;2023-07-13T10:39:49;20.60;99.90
75321;DHT22;68337;52.196;5.660;2023-07-13T10:42:24;21.10;99.90
75321;DHT22;68337;52.196;5.660;2023-07-13T10:44:51;21.30;99.90
75321;DHT22;68337;52.196;5.660;2023-07-13T10:47:17;21.50;99.90
75321;DHT22;68337;52.196;5.660;2023-07-13T10:49:44;21.90;99.90
75321;DHT22;68337;52.196;5.660;2023-07-13T10:58:18;22.80;99.90
75321;DHT22;68337;52.196;5.660;2023-07-13T11:01:14;23.50;99.90
75321;DHT22;68337;52.196;5.660;2023-07-13T11:08:58;23.70;99.90
75321;DHT22;68337;52.196;5.660;2023-07-13T11:18:49;23.50;99.90
75321;DHT22;68337;52.196;5.660;2023-07-13T11:21:25;24.20;99.90
75321;DHT22;68337;52.196;5.660;2023-07-13T11:24:00;24.10;99.90
75321;DHT22;68337;52.196;5.660;2023-07-13T11:26:50;24.50;99.90
75321;DHT22;68337;52.196;5.660;2023-07-13T11:31:53;24.60;99.90
75321;DHT22;68337;52.196;5.660;2023-07-13T11:34:33;24.10;99.90
75321;DHT22;68337;52.196;5.660;2023-07-13T11:37:01;23.00;99.90
75321;DHT22;68337;52.196;5.660;2023-07-13T11:39:36;22.00;99.90
75321;DHT22;68337;52.196;5.660;2023-07-13T11:42:06;21.90;99.90
75321;DHT22;68337;52.196;5.660;2023-07-13T11:44:34;22.40;99.90
75321;DHT22;68337;52.196;5.660;2023-07-13T11:47:11;22.70;99.90
75321;DHT22;68337;52.196;5.660;2023-07-13T11:49:45;23.10;99.90
75321;DHT22;68337;52.196;5.660;2023-07-13T11:52:17;23.30;99.90
75321;DHT22;68337;52.196;5.660;2023-07-13T11:59:58;23.40;99.90
75321;DHT22;68337;52.196;5.660;2023-07-13T12:02:33;23.10;99.90
75321;DHT22;68337;52.196;5.660;2023-07-13T12:05:03;22.80;99.90
75321;DHT22;68337;52.196;5.660;2023-07-13T12:07:32;22.60;99.90
75321;DHT22;68337;52.196;5.660;2023-07-13T12:10:21;22.50;99.90
75321;DHT22;68337;52.196;5.660;2023-07-13T12:13:08;22.40;99.90
75321;DHT22;68337;52.196;5.660;2023-07-13T12:15:39;22.40;99.90
75321;DHT22;68337;52.196;5.660;2023-07-13T12:18:32;22.60;99.90
75321;DHT22;68337;52.196;5.660;2023-07-13T12:20:59;22.40;99.90
75321;DHT22;68337;52.196;5.660;2023-07-13T12:23:34;22.30;99.90
75321;DHT22;68337;52.196;5.660;2023-07-13T12:26:03;22.40;99.90
75321;DHT22;68337;52.196;5.660;2023-07-13T12:28:33;22.40;99.90
75321;DHT22;68337;52.196;5.660;2023-07-13T12:31:02;22.30;99.90
75321;DHT22;68337;52.196;5.660;2023-07-13T12:33:29;22.40;99.90
75321;DHT22;68337;52.196;5.660;2023-07-13T12:35:57;22.50;99.90
75321;DHT22;68337;52.196;5.660;2023-07-13T12:38:25;22.40;99.90
75321;DHT22;68337;52.196;5.660;2023-07-13T12:40:52;22.70;99.90
75321;DHT22;68337;52.196;5.660;2023-07-13T12:43:20;22.50;99.90
75321;DHT22;68337;52.196;5.660;2023-07-13T12:45:57;22.30;99.90
75321;DHT22;68337;52.196;5.660;2023-07-13T12:48:23;22.50;99.90
75321;DHT22;68337;52.196;5.660;2023-07-13T12:50:50;22.50;99.90
75321;DHT22;68337;52.196;5.660;2023-07-13T12:53:23;22.70;99.90
75321;DHT22;68337;52.196;5.660;2023-07-13T12:55:55;22.70;99.90
75321;DHT22;68337;52.196;5.660;2023-07-13T13:01:34;23.60;99.90
75321;DHT22;68337;52.196;5.660;2023-07-13T13:04:09;24.00;99.90
75321;DHT22;68337;52.196;5.660;2023-07-13T13:06:36;24.70;99.90
75321;DHT22;68337;52.196;5.660;2023-07-13T13:09:03;25.60;99.90
75321;DHT22;68337;52.196;5.660;2023-07-13T13:11:31;25.80;99.90
75321;DHT22;68337;52.196;5.660;2023-07-13T13:13:57;26.10;99.90
75321;DHT22;68337;52.196;5.660;2023-07-13T13:18:54;25.70;99.90
75321;DHT22;68337;52.196;5.660;2023-07-13T13:21:23;24.70;99.90
75321;DHT22;68337;52.196;5.660;2023-07-13T13:23:50;24.50;99.90
75321;DHT22;68337;52.196;5.660;2023-07-13T13:26:19;25.30;99.90
75321;DHT22;68337;52.196;5.660;2023-07-13T13:28:48;25.90;99.90
75321;DHT22;68337;52.196;5.660;2023-07-13T13:31:14;25.90;99.90
75321;DHT22;68337;52.196;5.660;2023-07-13T13:33:45;25.60;99.90
75321;DHT22;68337;52.196;5.660;2023-07-13T13:36:19;25.00;99.90
75321;DHT22;68337;52.196;5.660;2023-07-13T13:38:46;24.80;99.90
75321;DHT22;68337;52.196;5.660;2023-07-13T13:41:14;24.90;99.90
75321;DHT22;68337;52.196;5.660;2023-07-13T13:43:43;25.20;99.90
75321;DHT22;68337;52.196;5.660;2023-07-13T13:46:16;25.80;99.90
75321;DHT22;68337;52.196;5.660;2023-07-13T13:48:43;26.20;99.90
75321;DHT22;68337;52.196;5.660;2023-07-13T13:51:16;25.70;99.90
75321;DHT22;68337;52.196;5.660;2023-07-13T13:53:43;25.10;99.90
75321;DHT22;68337;52.196;5.660;2023-07-13T13:56:09;24.40;99.90
75321;DHT22;68337;52.196;5.660;2023-07-13T13:58:35;24.20;99.90
75321;DHT22;68337;52.196;5.660;2023-07-13T14:01:01;24.10;99.90
75321;DHT22;68337;52.196;5.660;2023-07-13T14:03:26;24.10;99.90
75321;DHT22;68337;52.196;5.660;2023-07-13T14:05:53;23.70;99.90
75321;DHT22;68337;52.196;5.660;2023-07-13T14:08:20;23.20;99.90
75321;DHT22;68337;52.196;5.660;2023-07-13T14:10:49;23.40;99.90
75321;DHT22;68337;52.196;5.660;2023-07-13T14:13:26;24.10;99.90
75321;DHT22;68337;52.196;5.660;2023-07-13T14:15:53;24.70;99.90
75321;DHT22;68337;52.196;5.660;2023-07-13T14:18:19;25.20;99.90
75321;DHT22;68337;52.196;5.660;2023-07-13T14:20:49;24.70;99.90
75321;DHT22;68337;52.196;5.660;2023-07-13T14:23:16;24.90;99.90
75321;DHT22;68337;52.196;5.660;2023-07-13T14:25:44;24.90;99.90
75321;DHT22;68337;52.196;5.660;2023-07-13T14:28:25;24.80;99.90
75321;DHT22;68337;52.196;5.660;2023-07-13T14:30:52;25.00;99.90
75321;DHT22;68337;52.196;5.660;2023-07-13T14:33:20;25.00;99.90
75321;DHT22;68337;52.196;5.660;2023-07-13T14:35:46;24.90;99.90
75321;DHT22;68337;52.196;5.660;2023-07-13T14:38:18;24.40;99.90
75321;DHT22;68337;52.196;5.660;2023-07-13T14:40:45;24.40;99.90
75321;DHT22;68337;52.196;5.660;2023-07-13T14:43:13;24.30;99.90
75321;DHT22;68337;52.196;5.660;2023-07-13T14:45:49;24.30;99.90
75321;DHT22;68337;52.196;5.660;2023-07-13T14:48:22;24.30;99.90
75321;DHT22;68337;52.196;5.660;2023-07-13T14:50:53;23.90;99.90
75321;DHT22;68337;52.196;5.660;2023-07-13T14:53:20;23.70;99.90
75321;DHT22;68337;52.196;5.660;2023-07-13T14:55:46;23.70;99.90
75321;DHT22;68337;52.196;5.660;2023-07-13T14:58:12;23.90;99.90
75321;DHT22;68337;52.196;5.660;2023-07-13T15:00:39;24.40;99.90
75321;DHT22;68337;52.196;5.660;2023-07-13T15:03:16;24.30;99.90
75321;DHT22;68337;52.196;5.660;2023-07-13T15:05:44;24.50;99.90
75321;DHT22;68337;52.196;5.660;2023-07-13T15:08:11;24.00;99.90
75321;DHT22;68337;52.196;5.660;2023-07-13T15:10:37;24.00;99.90
75321;DHT22;68337;52.196;5.660;2023-07-13T15:13:20;23.70;99.90
75321;DHT22;68337;52.196;5.660;2023-07-13T15:15:49;23.60;99.90
75321;DHT22;68337;52.196;5.660;2023-07-13T15:18:16;23.70;99.90
75321;DHT22;68337;52.196;5.660;2023-07-13T15:20:44;24.00;99.90
75321;DHT22;68337;52.196;5.660;2023-07-13T15:23:15;23.90;99.90
75321;DHT22;68337;52.196;5.660;2023-07-13T15:25:43;23.90;99.90
75321;DHT22;68337;52.196;5.660;2023-07-13T15:28:11;23.80;99.90
75321;DHT22;68337;52.196;5.660;2023-07-13T15:30:48;23.80;99.90
75321;DHT22;68337;52.196;5.660;2023-07-13T15:33:28;24.00;99.90
75321;DHT22;68337;52.196;5.660;2023-07-13T15:35:55;23.70;99.90
75321;DHT22;68337;52.196;5.660;2023-07-13T15:38:25;23.50;99.90
75321;DHT22;68337;52.196;5.660;2023-07-13T15:40:51;23.40;99.90
75321;DHT22;68337;52.196;5.660;2023-07-13T15:43:18;23.40;99.90
75321;DHT22;68337;52.196;5.660;2023-07-13T15:45:45;23.40;99.90
75321;DHT22;68337;52.196;5.660;2023-07-13T15:50:52;23.40;99.90
75321;DHT22;68337;52.196;5.660;2023-07-13T15:53:21;23.10;99.90
75321;DHT22;68337;52.196;5.660;2023-07-13T15:55:48;22.90;99.90
75321;DHT22;68337;52.196;5.660;2023-07-13T15:58:15;23.20;99.90
75321;DHT22;68337;52.196;5.660;2023-07-13T16:00:41;23.50;99.90
75321;DHT22;68337;52.196;5.660;2023-07-13T16:03:07;23.20;99.90
75321;DHT22;68337;52.196;5.660;2023-07-13T16:05:34;23.00;99.90
75321;DHT22;68337;52.196;5.660;2023-07-13T16:08:00;23.00;99.90
75321;DHT22;68337;52.196;5.660;2023-07-13T16:10:36;23.30;99.90
75321;DHT22;68337;52.196;5.660;2023-07-13T16:13:14;23.30;99.90
75321;DHT22;68337;52.196;5.660;2023-07-13T16:15:41;23.40;99.90
75321;DHT22;68337;52.196;5.660;2023-07-13T16:18:13;23.50;99.90
75321;DHT22;68337;52.196;5.660;2023-07-13T16:20:43;23.60;99.90
75321;DHT22;68337;52.196;5.660;2023-07-13T16:23:12;23.70;99.90
75321;DHT22;68337;52.196;5.660;2023-07-13T16:25:39;23.50;99.90
75321;DHT22;68337;52.196;5.660;2023-07-13T16:28:08;23.40;99.90
75321;DHT22;68337;52.196;5.660;2023-07-13T16:30:36;23.40;99.90
75321;DHT22;68337;52.196;5.660;2023-07-13T16:33:03;23.60;99.90
75321;DHT22;68337;52.196;5.660;2023-07-13T16:35:37;23.40;99.90
75321;DHT22;68337;52.196;5.660;2023-07-13T16:38:19;23.30;99.90
75321;DHT22;68337;52.196;5.660;2023-07-13T16:40:45;23.00;99.90
75321;DHT22;68337;52.196;5.660;2023-07-13T16:43:16;23.00;99.90